createdAt,value
2022-09-16T00:01:36.621Z,100.00
2022-09-16T00:04:03.260Z,100.00
2022-09-16T00:06:30.503Z,100.00
2022-09-16T00:09:00.955Z,100.00
2022-09-16T00:11:27.589Z,100.00
2022-09-16T00:13:54.041Z,100.00
2022-09-16T00:16:24.161Z,100.00
2022-09-16T00:18:59.727Z,100.00
2022-09-16T00:21:27.952Z,100.00
2022-09-16T00:23:56.194Z,100.00
2022-09-16T00:26:23.246Z,100.00
2022-09-16T00:28:50.711Z,100.00
2022-09-16T00:31:17.790Z,100.00
2022-09-16T00:33:44.244Z,100.00
2022-09-16T00:36:16.542Z,100.00
2022-09-16T00:38:43.928Z,100.00
2022-09-16T00:41:17.013Z,100.00
2022-09-16T00:43:53.087Z,100.00
2022-09-16T00:46:38.418Z,100.00
2022-09-16T00:49:13.347Z,100.00
2022-09-16T00:51:40.960Z,100.00
2022-09-16T00:54:10.035Z,100.00
2022-09-16T00:56:40.217Z,100.00
2022-09-16T00:59:21.942Z,100.00
2022-09-16T01:01:49.609Z,100.00
2022-09-16T01:04:27.351Z,100.00
2022-09-16T01:06:54.584Z,100.00
2022-09-16T01:09:22.982Z,100.00
2022-09-16T01:11:49.675Z,100.00
2022-09-16T01:14:35.609Z,100.00
2022-09-16T01:17:10.856Z,100.00
2022-09-16T01:20:11.843Z,100.00
2022-09-16T01:23:02.316Z,100.00
2022-09-16T01:26:08.867Z,100.00
2022-09-16T01:28:53.666Z,100.00
2022-09-16T01:31:40.363Z,100.00
2022-09-16T01:34:37.923Z,100.00
2022-09-16T01:37:25.802Z,100.00
2022-09-16T01:39:53.302Z,100.00
2022-09-16T01:42:28.928Z,100.00
2022-09-16T01:45:06.993Z,100.00
2022-09-16T01:47:41.866Z,100.00
2022-09-16T01:50:14.283Z,100.00
2022-09-16T01:52:55.840Z,100.00
2022-09-16T01:55:28.400Z,100.00
2022-09-16T01:58:13.564Z,100.00
2022-09-16T02:00:43.507Z,100.00
2022-09-16T02:03:18.909Z,100.00
2022-09-16T02:05:46.157Z,100.00
2022-09-16T02:08:17.829Z,100.00
2022-09-16T02:10:51.457Z,100.00
2022-09-16T02:13:24.171Z,100.00
2022-09-16T02:15:53.774Z,100.00
2022-09-16T02:18:26.178Z,100.00
2022-09-16T02:20:54.676Z,100.00
2022-09-16T02:23:25.601Z,100.00
2022-09-16T02:25:54.609Z,100.00
2022-09-16T02:28:33.294Z,100.00
2022-09-16T02:31:03.712Z,100.00
2022-09-16T02:33:44.578Z,100.00
2022-09-16T02:36:17.153Z,100.00
2022-09-16T02:38:51.673Z,100.00
2022-09-16T02:41:18.120Z,100.00
2022-09-16T02:43:45.754Z,100.00
2022-09-16T02:47:09.331Z,100.00
2022-09-16T02:49:47.635Z,100.00
2022-09-16T02:52:28.157Z,100.00
2022-09-16T02:55:05.829Z,100.00
2022-09-16T02:57:32.733Z,100.00
2022-09-16T02:59:59.206Z,100.00
2022-09-16T03:02:25.862Z,100.00
2022-09-16T03:04:52.339Z,100.00
2022-09-16T03:07:18.909Z,100.00
2022-09-16T03:09:49.791Z,100.00
2022-09-16T03:12:37.620Z,100.00
2022-09-16T03:15:32.042Z,100.00
2022-09-16T03:18:01.864Z,100.00
2022-09-16T03:20:43.428Z,100.00
2022-09-16T03:23:26.468Z,100.00
2022-09-16T03:26:15.590Z,100.00
2022-09-16T03:28:54.786Z,100.00
2022-09-16T03:31:30.180Z,100.00
2022-09-16T03:34:44.426Z,100.00
2022-09-16T03:37:15.522Z,100.00
2022-09-16T03:39:42.925Z,100.00
2022-09-16T03:42:11.323Z,100.00
2022-09-16T03:44:40.120Z,100.00
2022-09-16T03:47:08.260Z,100.00
2022-09-16T03:49:35.708Z,100.00
2022-09-16T03:52:04.673Z,100.00
2022-09-16T03:54:32.171Z,100.00
2022-09-16T03:57:00.423Z,100.00
2022-09-16T03:59:27.866Z,100.00
2022-09-16T04:01:54.563Z,100.00
2022-09-16T04:04:21.587Z,100.00
2022-09-16T04:06:48.004Z,100.00
2022-09-16T04:09:15.512Z,100.00
2022-09-16T04:11:42.480Z,100.00
2022-09-16T04:14:09.018Z,100.00
2022-09-16T04:16:35.466Z,100.00
2022-09-16T04:19:01.947Z,100.00
2022-09-16T04:21:29.381Z,100.00
2022-09-16T04:23:55.870Z,100.00
2022-09-16T04:26:22.324Z,100.00
2022-09-16T04:28:48.847Z,100.00
2022-09-16T04:31:16.057Z,100.00
2022-09-16T04:33:43.092Z,100.00
2022-09-16T04:36:15.924Z,100.00
2022-09-16T04:38:44.112Z,100.00
2022-09-16T04:41:16.184Z,100.00
2022-09-16T04:43:42.642Z,100.00
2022-09-16T04:46:09.389Z,100.00
2022-09-16T04:48:36.267Z,100.00
2022-09-16T04:51:05.851Z,100.00
2022-09-16T04:53:33.141Z,100.00
2022-09-16T04:56:09.356Z,100.00
2022-09-16T04:58:36.608Z,100.00
2022-09-16T05:01:12.571Z,100.00
2022-09-16T05:03:44.080Z,100.00
2022-09-16T05:06:19.776Z,100.00
2022-09-16T05:08:47.878Z,100.00
2022-09-16T05:11:17.346Z,100.00
2022-09-16T05:13:43.793Z,100.00
2022-09-16T05:16:15.818Z,100.00
2022-09-16T05:18:44.075Z,100.00
2022-09-16T05:21:13.072Z,100.00
2022-09-16T05:23:45.853Z,100.00
2022-09-16T05:26:21.404Z,100.00
2022-09-16T05:28:48.704Z,100.00
2022-09-16T05:31:21.068Z,100.00
2022-09-16T05:33:57.205Z,100.00
2022-09-16T05:36:24.584Z,100.00
2022-09-16T05:39:18.184Z,100.00
2022-09-16T05:41:38.101Z,100.00
2022-09-16T05:44:06.520Z,100.00
2022-09-16T05:46:33.383Z,100.00
2022-09-16T05:48:59.855Z,100.00
2022-09-16T05:51:26.992Z,100.00
2022-09-16T05:53:54.485Z,100.00
2022-09-16T05:56:25.724Z,100.00
2022-09-16T05:58:57.349Z,100.00
2022-09-16T06:01:31.271Z,100.00
2022-09-16T06:03:58.301Z,100.00
2022-09-16T06:06:30.349Z,100.00
2022-09-16T06:09:03.651Z,100.00
2022-09-16T06:11:30.182Z,100.00
2022-09-16T06:14:01.601Z,100.00
2022-09-16T06:16:32.100Z,100.00
2022-09-16T06:19:03.186Z,100.00
2022-09-16T06:21:30.005Z,100.00
2022-09-16T06:23:57.110Z,100.00
2022-09-16T06:26:26.648Z,100.00
2022-09-16T06:28:54.313Z,100.00
2022-09-16T06:31:27.349Z,100.00
2022-09-16T06:33:54.895Z,100.00
2022-09-16T06:36:23.756Z,100.00
2022-09-16T06:38:51.170Z,100.00
2022-09-16T06:41:19.350Z,100.00
2022-09-16T06:43:46.469Z,100.00
2022-09-16T06:46:18.831Z,100.00
2022-09-16T06:48:50.844Z,100.00
2022-09-16T06:51:19.984Z,100.00
2022-09-16T06:53:50.695Z,100.00
2022-09-16T06:56:19.727Z,100.00
2022-09-16T06:58:48.587Z,100.00
2022-09-16T07:01:17.683Z,100.00
2022-09-16T07:03:47.633Z,100.00
2022-09-16T07:06:15.483Z,100.00
2022-09-16T07:08:42.421Z,100.00
2022-09-16T07:11:14.516Z,100.00
2022-09-16T07:13:41.873Z,100.00
2022-09-16T07:16:13.671Z,100.00
2022-09-16T07:18:40.882Z,100.00
2022-09-16T07:21:11.141Z,100.00
2022-09-16T07:23:38.684Z,100.00
2022-09-16T07:26:08.738Z,100.00
2022-09-16T07:28:35.837Z,100.00
2022-09-16T07:31:03.877Z,100.00
2022-09-16T07:33:37.573Z,100.00
2022-09-16T07:36:05.369Z,100.00
2022-09-16T07:38:32.240Z,100.00
2022-09-16T07:41:24.052Z,100.00
2022-09-16T07:43:50.985Z,100.00
2022-09-16T07:46:18.893Z,100.00
2022-09-16T07:48:47.481Z,100.00
2022-09-16T07:51:19.244Z,100.00
2022-09-16T07:53:46.759Z,100.00
2022-09-16T07:56:19.385Z,100.00
2022-09-16T07:58:47.180Z,100.00
2022-09-16T08:01:15.974Z,100.00
2022-09-16T08:03:44.484Z,100.00
2022-09-16T08:06:23.111Z,100.00
2022-09-16T08:08:53.069Z,100.00
2022-09-16T08:11:19.940Z,100.00
2022-09-16T08:13:46.720Z,100.00
2022-09-16T08:16:16.271Z,100.00
2022-09-16T08:18:43.725Z,100.00
2022-09-16T08:21:12.836Z,100.00
2022-09-16T08:23:39.869Z,100.00
2022-09-16T08:26:08.453Z,100.00
2022-09-16T08:28:45.239Z,100.00
2022-09-16T08:31:19.100Z,100.00
2022-09-16T08:33:46.079Z,100.00
2022-09-16T08:36:15.070Z,100.00
2022-09-16T08:38:42.953Z,100.00
2022-09-16T08:41:21.502Z,100.00
2022-09-16T08:44:16.185Z,100.00
2022-09-16T08:46:54.008Z,100.00
2022-09-16T08:49:48.683Z,100.00
2022-09-16T08:52:36.710Z,100.00
2022-09-16T08:55:08.122Z,98.23
2022-09-16T08:57:41.043Z,98.12
2022-09-16T09:00:14.716Z,99.40
2022-09-16T09:05:17.006Z,96.61
2022-09-16T09:07:58.454Z,99.21
2022-09-16T09:10:44.896Z,99.00
2022-09-16T09:13:29.044Z,87.61
2022-09-16T09:16:13.846Z,91.94
2022-09-16T09:19:13.907Z,88.09
2022-09-16T09:21:58.822Z,86.30
2022-09-16T09:24:34.117Z,89.92
2022-09-16T09:27:07.846Z,92.78
2022-09-16T09:29:59.169Z,88.21
2022-09-16T09:32:49.014Z,90.34
2022-09-16T09:35:25.414Z,89.39
2022-09-16T09:38:20.918Z,85.27
2022-09-16T09:41:32.505Z,85.51
2022-09-16T09:44:01.881Z,84.18
2022-09-16T09:46:44.857Z,86.89
2022-09-16T09:49:24.749Z,85.93
2022-09-16T09:51:57.012Z,86.53
2022-09-16T09:54:29.646Z,83.37
2022-09-16T09:57:03.904Z,83.40
2022-09-16T09:59:45.398Z,80.46
2022-09-16T10:02:17.337Z,73.78
2022-09-16T10:04:44.826Z,73.79
2022-09-16T10:07:14.622Z,74.24
2022-09-16T10:09:51.423Z,74.20
2022-09-16T10:12:31.541Z,75.98
2022-09-16T10:14:59.011Z,75.82
2022-09-16T10:17:27.003Z,75.79
2022-09-16T10:19:58.200Z,77.03
2022-09-16T10:22:30.224Z,79.71
2022-09-16T10:25:24.521Z,81.24
2022-09-16T10:28:01.257Z,79.11
2022-09-16T10:30:33.380Z,81.77
2022-09-16T10:33:13.832Z,82.34
2022-09-16T10:35:43.630Z,83.13
2022-09-16T10:38:13.071Z,85.88
2022-09-16T10:40:51.706Z,84.97
2022-09-16T10:43:18.291Z,82.83
2022-09-16T10:45:50.530Z,76.06
2022-09-16T10:48:20.471Z,77.16
2022-09-16T10:51:00.514Z,80.36
2022-09-16T10:53:39.684Z,82.72
2022-09-16T10:56:21.669Z,70.80
2022-09-16T10:58:48.091Z,78.47
2022-09-16T11:01:44.566Z,77.46
2022-09-16T11:04:32.714Z,78.85
2022-09-16T11:07:25.408Z,82.56
2022-09-16T11:10:00.807Z,83.60
2022-09-16T11:12:30.333Z,80.13
2022-09-16T11:15:17.166Z,79.40
2022-09-16T11:17:52.598Z,78.57
2022-09-16T11:20:43.977Z,72.70
2022-09-16T11:23:44.818Z,68.10
2022-09-16T11:26:28.965Z,64.62
2022-09-16T11:29:14.139Z,59.34
2022-09-16T11:31:40.586Z,59.40
2022-09-16T11:34:25.777Z,59.70
2022-09-16T11:37:01.538Z,60.94
2022-09-16T11:39:46.690Z,60.10
2022-09-16T11:42:30.223Z,57.70
2022-09-16T11:45:27.708Z,57.44
2022-09-16T11:48:12.482Z,61.80
2022-09-16T11:50:42.108Z,62.57
2022-09-16T11:53:18.996Z,62.26
2022-09-16T11:55:50.556Z,63.31
2022-09-16T11:58:28.927Z,57.80
2022-09-16T12:01:01.912Z,56.93
2022-09-16T12:03:40.306Z,55.90
2022-09-16T12:06:11.309Z,57.04
2022-09-16T12:08:52.475Z,56.11
2022-09-16T12:11:32.910Z,54.36
2022-09-16T12:14:29.310Z,57.80
2022-09-16T12:17:01.721Z,70.16
2022-09-16T12:19:33.869Z,71.57
2022-09-16T12:22:05.842Z,77.22
2022-09-16T12:24:56.584Z,78.72
2022-09-16T12:27:43.263Z,81.99
2022-09-16T12:30:41.935Z,84.73
2022-09-16T12:33:15.341Z,85.71
2022-09-16T12:36:10.873Z,86.50
2022-09-16T12:38:37.499Z,89.31
2022-09-16T12:41:06.637Z,90.53
2022-09-16T12:44:02.217Z,89.66
2022-09-16T12:46:53.976Z,90.42
2022-09-16T12:49:39.073Z,93.19
2022-09-16T12:52:33.564Z,97.32
2022-09-16T12:55:29.691Z,100.00
2022-09-16T12:57:58.890Z,100.00
2022-09-16T13:00:32.583Z,100.00
2022-09-16T13:03:17.689Z,100.00
2022-09-16T13:05:48.160Z,100.00
2022-09-16T13:08:23.029Z,100.00
2022-09-16T13:11:25.507Z,100.00
2022-09-16T13:13:50.042Z,100.00
2022-09-16T13:16:34.444Z,100.00
2022-09-16T13:19:27.286Z,100.00
2022-09-16T13:22:18.606Z,100.00
2022-09-16T13:25:28.237Z,100.00
2022-09-16T13:28:22.854Z,100.00
2022-09-16T13:30:49.351Z,100.00
2022-09-16T13:33:26.533Z,100.00
2022-09-16T13:36:13.703Z,100.00
2022-09-16T13:39:05.125Z,100.00
2022-09-16T13:41:45.973Z,100.00
2022-09-16T13:44:37.372Z,100.00
2022-09-16T13:47:10.026Z,100.00
2022-09-16T13:50:02.785Z,100.00
2022-09-16T13:52:34.597Z,100.00
2022-09-16T13:55:12.201Z,100.00
2022-09-16T13:58:00.186Z,100.00
2022-09-16T14:00:53.629Z,97.68
2022-09-16T14:03:41.576Z,89.70
2022-09-16T14:06:32.820Z,86.56
2022-09-16T14:09:24.500Z,87.68
2022-09-16T14:12:24.985Z,77.73
2022-09-16T14:14:52.236Z,78.74
2022-09-16T14:17:47.727Z,71.85
2022-09-16T14:20:20.717Z,70.76
2022-09-16T14:22:47.356Z,71.71
2022-09-16T14:25:29.362Z,71.58
2022-09-16T14:28:23.259Z,71.04
2022-09-16T14:30:59.739Z,70.67
2022-09-16T14:33:32.565Z,69.22
2022-09-16T14:36:00.360Z,66.35
2022-09-16T14:38:45.566Z,69.85
2022-09-16T14:41:22.546Z,72.17
2022-09-16T14:43:49.558Z,72.37
2022-09-16T14:46:17.168Z,74.49
2022-09-16T14:48:44.370Z,75.65
2022-09-16T14:51:24.948Z,77.48
2022-09-16T14:54:11.897Z,79.96
2022-09-16T14:56:38.994Z,81.15
2022-09-16T14:59:06.637Z,79.81
2022-09-16T15:01:33.112Z,80.12
2022-09-16T15:04:08.869Z,82.55
2022-09-16T15:06:43.090Z,83.83
2022-09-16T15:09:25.077Z,88.53
2022-09-16T15:11:57.136Z,91.94
2022-09-16T15:14:25.683Z,94.54
2022-09-16T15:16:57.197Z,100.00
2022-09-16T15:19:27.401Z,92.38
2022-09-16T15:21:54.387Z,96.50
2022-09-16T15:24:25.910Z,98.97
2022-09-16T15:26:53.827Z,100.00
2022-09-16T15:29:20.577Z,100.00
2022-09-16T15:31:47.987Z,100.00
2022-09-16T15:34:27.856Z,100.00
2022-09-16T15:36:56.718Z,100.00
2022-09-16T15:39:23.748Z,100.00
2022-09-16T15:42:02.070Z,100.00
2022-09-16T15:44:28.531Z,100.00
2022-09-16T15:46:55.150Z,100.00
2022-09-16T15:49:24.513Z,100.00
2022-09-16T15:51:53.141Z,100.00
2022-09-16T15:54:19.500Z,100.00
2022-09-16T15:57:20.404Z,100.00
2022-09-16T16:00:12.839Z,100.00
2022-09-16T16:02:53.808Z,100.00
2022-09-16T16:05:23.513Z,100.00
2022-09-16T16:07:55.307Z,100.00
2022-09-16T16:10:26.357Z,100.00
2022-09-16T16:12:54.539Z,100.00
2022-09-16T16:15:24.257Z,100.00
2022-09-16T16:17:52.406Z,100.00
2022-09-16T16:20:19.674Z,100.00
2022-09-16T16:22:46.469Z,100.00
2022-09-16T16:25:13.640Z,100.00
2022-09-16T16:27:41.352Z,100.00
2022-09-16T16:30:08.658Z,100.00
2022-09-16T16:32:35.308Z,100.00
2022-09-16T16:35:01.803Z,100.00
2022-09-16T16:37:45.338Z,100.00
2022-09-16T16:40:12.400Z,100.00
2022-09-16T16:42:40.243Z,100.00
2022-09-16T16:45:07.374Z,100.00
2022-09-16T16:47:33.829Z,100.00
2022-09-16T16:50:01.622Z,100.00
2022-09-16T16:52:28.624Z,100.00
2022-09-16T16:54:55.061Z,100.00
2022-09-16T16:57:21.616Z,100.00
2022-09-16T16:59:48.022Z,100.00
2022-09-16T17:02:15.152Z,100.00
2022-09-16T17:04:41.725Z,100.00
2022-09-16T17:07:25.198Z,100.00
2022-09-16T17:09:52.217Z,100.00
2022-09-16T17:12:18.662Z,100.00
2022-09-16T17:14:45.072Z,100.00
2022-09-16T17:17:11.486Z,100.00
2022-09-16T17:19:37.989Z,100.00
2022-09-16T17:22:04.543Z,100.00
2022-09-16T17:24:31.059Z,100.00
2022-09-16T17:26:57.498Z,100.00
2022-09-16T17:29:24.186Z,100.00
2022-09-16T17:31:50.703Z,100.00
2022-09-16T17:34:17.158Z,100.00
2022-09-16T17:36:45.768Z,100.00
2022-09-16T17:39:17.843Z,100.00
2022-09-16T17:41:46.050Z,100.00
2022-09-16T17:44:13.897Z,100.00
2022-09-16T17:46:41.904Z,100.00
2022-09-16T17:49:13.822Z,100.00
2022-09-16T17:51:40.707Z,100.00
2022-09-16T17:54:08.700Z,100.00
2022-09-16T17:56:35.471Z,100.00
2022-09-16T17:59:02.146Z,100.00
2022-09-16T18:01:30.648Z,100.00
2022-09-16T18:03:57.514Z,100.00
2022-09-16T18:06:35.612Z,100.00
2022-09-16T18:09:09.670Z,100.00
2022-09-16T18:11:37.365Z,100.00
2022-09-16T18:14:05.708Z,100.00
2022-09-16T18:16:32.693Z,100.00
2022-09-16T18:19:00.778Z,100.00
2022-09-16T18:21:28.413Z,100.00
2022-09-16T18:23:57.409Z,100.00
2022-09-16T18:26:25.068Z,100.00
2022-09-16T18:29:11.136Z,100.00
2022-09-16T18:31:40.968Z,100.00
2022-09-16T18:34:07.870Z,100.00
2022-09-16T18:36:36.712Z,100.00
2022-09-16T18:39:04.270Z,100.00
2022-09-16T18:41:35.667Z,100.00
2022-09-16T18:44:07.580Z,100.00
2022-09-16T18:46:36.208Z,100.00
2022-09-16T18:49:03.679Z,100.00
2022-09-16T18:51:32.888Z,100.00
2022-09-16T18:54:03.067Z,100.00
2022-09-16T18:56:32.622Z,100.00
2022-09-16T18:59:22.609Z,100.00
2022-09-16T19:01:52.109Z,100.00
2022-09-16T19:04:21.720Z,100.00
2022-09-16T19:06:50.279Z,100.00
2022-09-16T19:09:19.324Z,100.00
2022-09-16T19:11:45.899Z,100.00
2022-09-16T19:14:14.187Z,100.00
2022-09-16T19:16:42.971Z,100.00
2022-09-16T19:19:11.350Z,100.00
2022-09-16T19:21:38.429Z,100.00
2022-09-16T19:24:07.744Z,100.00
2022-09-16T19:26:36.687Z,100.00
2022-09-16T19:29:07.065Z,100.00
2022-09-16T19:31:35.457Z,100.00
2022-09-16T19:34:01.973Z,100.00
2022-09-16T19:36:30.213Z,100.00
2022-09-16T19:38:57.616Z,100.00
2022-09-16T19:41:26.667Z,100.00
2022-09-16T19:43:58.258Z,100.00
2022-09-16T19:46:26.043Z,100.00
2022-09-16T19:48:52.911Z,100.00
2022-09-16T19:51:22.679Z,100.00
2022-09-16T19:53:50.059Z,100.00
2022-09-16T19:56:21.305Z,100.00
2022-09-16T19:58:49.297Z,100.00
2022-09-16T20:01:22.435Z,100.00
2022-09-16T20:03:51.940Z,100.00
2022-09-16T20:06:23.003Z,100.00
2022-09-16T20:08:55.367Z,100.00
2022-09-16T20:11:24.083Z,100.00
2022-09-16T20:13:55.967Z,100.00
2022-09-16T20:16:28.893Z,100.00
2022-09-16T20:18:55.428Z,100.00
2022-09-16T20:21:24.666Z,100.00
2022-09-16T20:23:52.168Z,100.00
2022-09-16T20:26:20.051Z,100.00
2022-09-16T20:28:51.866Z,100.00
2022-09-16T20:31:28.074Z,100.00
2022-09-16T20:33:55.076Z,100.00
2022-09-16T20:36:25.354Z,100.00
2022-09-16T20:38:52.478Z,100.00
2022-09-16T20:41:24.539Z,100.00
2022-09-16T20:43:52.197Z,100.00
2022-09-16T20:46:24.676Z,100.00
2022-09-16T20:48:55.931Z,100.00
2022-09-16T20:51:25.155Z,100.00
2022-09-16T20:53:53.913Z,100.00
2022-09-16T20:56:20.849Z,100.00
2022-09-16T20:58:47.900Z,100.00
2022-09-16T21:01:16.835Z,100.00
2022-09-16T21:03:45.026Z,100.00
2022-09-16T21:06:14.550Z,100.00
2022-09-16T21:08:42.133Z,100.00
2022-09-16T21:11:14.738Z,100.00
2022-09-16T21:13:43.096Z,100.00
2022-09-16T21:16:13.310Z,100.00
2022-09-16T21:18:40.136Z,100.00
2022-09-16T21:21:11.368Z,100.00
2022-09-16T21:23:38.256Z,100.00
2022-09-16T21:26:06.999Z,100.00
2022-09-16T21:28:35.979Z,100.00
2022-09-16T21:31:07.338Z,100.00
2022-09-16T21:33:36.353Z,100.00
2022-09-16T21:36:05.330Z,100.00
2022-09-16T21:38:33.103Z,100.00
2022-09-16T21:41:01.902Z,100.00
2022-09-16T21:43:30.823Z,100.00
2022-09-16T21:46:00.406Z,100.00
2022-09-16T21:48:27.807Z,100.00
2022-09-16T21:51:05.483Z,100.00
2022-09-16T21:53:32.979Z,100.00
2022-09-16T21:56:07.759Z,100.00
2022-09-16T21:58:35.256Z,100.00
2022-09-16T22:01:15.938Z,100.00
2022-09-16T22:03:43.618Z,100.00
2022-09-16T22:06:12.149Z,100.00
2022-09-16T22:08:39.180Z,100.00
2022-09-16T22:11:08.943Z,100.00
2022-09-16T22:13:35.713Z,100.00
2022-09-16T22:16:02.621Z,100.00
2022-09-16T22:18:32.584Z,100.00
2022-09-16T22:21:07.363Z,100.00
2022-09-16T22:23:36.311Z,100.00
2022-09-16T22:26:10.449Z,100.00
2022-09-16T22:28:37.746Z,100.00
2022-09-16T22:31:08.923Z,100.00
2022-09-16T22:33:36.649Z,100.00
2022-09-16T22:36:08.984Z,100.00
2022-09-16T22:38:35.857Z,100.00
2022-09-16T22:41:04.333Z,100.00
2022-09-16T22:43:38.505Z,100.00
2022-09-16T22:46:09.416Z,100.00
2022-09-16T22:48:35.845Z,100.00
2022-09-16T22:51:02.449Z,100.00
2022-09-16T22:53:30.589Z,100.00
2022-09-16T22:56:02.121Z,100.00
2022-09-16T22:58:29.695Z,100.00
2022-09-16T23:01:12.029Z,100.00
2022-09-16T23:03:39.622Z,100.00
2022-09-16T23:06:09.113Z,100.00
2022-09-16T23:08:38.573Z,100.00
2022-09-16T23:11:07.967Z,100.00
2022-09-16T23:13:35.986Z,100.00
2022-09-16T23:16:05.586Z,100.00
2022-09-16T23:18:34.370Z,100.00
2022-09-16T23:21:03.850Z,100.00
2022-09-16T23:23:31.314Z,100.00
2022-09-16T23:26:02.334Z,100.00
2022-09-16T23:28:30.873Z,100.00
2022-09-16T23:31:04.715Z,100.00
2022-09-16T23:33:31.329Z,100.00
2022-09-16T23:35:58.106Z,100.00
2022-09-16T23:38:24.543Z,100.00
2022-09-16T23:40:50.966Z,100.00
2022-09-16T23:43:17.424Z,100.00
2022-09-16T23:45:45.612Z,100.00
2022-09-16T23:48:13.246Z,100.00
2022-09-16T23:50:43.339Z,100.00
2022-09-16T23:53:09.760Z,100.00
2022-09-16T23:55:41.130Z,100.00
2022-09-16T23:58:07.618Z,100.00
